Marquez, Texas
Current Conditions -  °F | °C
As of 8:15 PM on Saturday 22 Nov 2014 (Local Time) from KLXY Reporting Station
Thunderstorm Thunderstorm  
Wind Chill: 59°   Ceiling: 10000
Heat Index: 59°   Visibility: 10mi
Dew Point: 58°   Wind: 5mph
Humidity: 96%   Direction: 10°N
Pressure: 29.8"   Gusts: NA
Location:  31.24°N, 96.25°W
Report Text: KLXY 230215Z AUTO 01004KT 10SM -VCTSRA SCT055 SCT075 OVC100 15/15 A2980 RMK AO2 LTG DSNT ALQS P0001 T01510145
Loading
Personal Weather Stations






























Interactive Weather Map New forecast layout! Learn more

10-Day Weather Forecast

Advertisements
Track Severe Weather on mobile